sensor_id;sensor_type;location;lat;lon;timestamp;temperature;humidity
54158;DHT22;40065;49.894;10.358;2024-02-15T00:03:23;9.80;99.90
54158;DHT22;40065;49.894;10.358;2024-02-15T00:08:42;9.80;99.90
54158;DHT22;40065;49.894;10.358;2024-02-15T00:13:46;9.70;99.90
54158;DHT22;40065;49.894;10.358;2024-02-15T00:18:48;9.70;99.90
54158;DHT22;40065;49.894;10.358;2024-02-15T00:23:51;9.70;99.90
54158;DHT22;40065;49.894;10.358;2024-02-15T00:28:55;9.80;99.90
54158;DHT22;40065;49.894;10.358;2024-02-15T00:33:57;9.80;99.90
54158;DHT22;40065;49.894;10.358;2024-02-15T00:39:01;9.90;99.90
54158;DHT22;40065;49.894;10.358;2024-02-15T00:44:05;9.90;99.90
54158;DHT22;40065;49.894;10.358;2024-02-15T00:49:07;9.80;99.90
54158;DHT22;40065;49.894;10.358;2024-02-15T00:54:10;9.80;99.90
54158;DHT22;40065;49.894;10.358;2024-02-15T00:59:12;9.80;99.90
54158;DHT22;40065;49.894;10.358;2024-02-15T01:04:14;9.80;99.90
54158;DHT22;40065;49.894;10.358;2024-02-15T01:09:15;9.80;99.90
54158;DHT22;40065;49.894;10.358;2024-02-15T01:14:17;9.80;99.90
54158;DHT22;40065;49.894;10.358;2024-02-15T01:19:19;10.00;99.90
54158;DHT22;40065;49.894;10.358;2024-02-15T01:24:21;9.90;99.90
54158;DHT22;40065;49.894;10.358;2024-02-15T01:29:23;9.90;99.90
54158;DHT22;40065;49.894;10.358;2024-02-15T01:34:27;9.90;99.90
54158;DHT22;40065;49.894;10.358;2024-02-15T01:39:29;9.90;99.90
54158;DHT22;40065;49.894;10.358;2024-02-15T01:44:31;9.80;99.90
54158;DHT22;40065;49.894;10.358;2024-02-15T01:49:33;9.90;99.90
54158;DHT22;40065;49.894;10.358;2024-02-15T01:54:36;9.80;99.90
54158;DHT22;40065;49.894;10.358;2024-02-15T01:59:40;9.80;99.90
54158;DHT22;40065;49.894;10.358;2024-02-15T02:04:43;9.80;99.90
54158;DHT22;40065;49.894;10.358;2024-02-15T02:09:46;9.70;99.90
54158;DHT22;40065;49.894;10.358;2024-02-15T02:14:48;9.80;99.90
54158;DHT22;40065;49.894;10.358;2024-02-15T02:19:51;9.80;99.90
54158;DHT22;40065;49.894;10.358;2024-02-15T02:25:06;9.80;99.90
54158;DHT22;40065;49.894;10.358;2024-02-15T02:30:16;9.90;99.90
54158;DHT22;40065;49.894;10.358;2024-02-15T02:35:20;9.70;99.90
54158;DHT22;40065;49.894;10.358;2024-02-15T02:40:22;9.70;99.90
54158;DHT22;40065;49.894;10.358;2024-02-15T02:45:24;9.70;99.90
54158;DHT22;40065;49.894;10.358;2024-02-15T02:50:26;9.60;99.90
54158;DHT22;40065;49.894;10.358;2024-02-15T02:55:28;9.50;99.90
54158;DHT22;40065;49.894;10.358;2024-02-15T03:00:31;9.40;99.90
54158;DHT22;40065;49.894;10.358;2024-02-15T03:05:33;9.40;99.90
54158;DHT22;40065;49.894;10.358;2024-02-15T03:10:35;9.40;99.90
54158;DHT22;40065;49.894;10.358;2024-02-15T03:15:37;9.40;99.90
54158;DHT22;40065;49.894;10.358;2024-02-15T03:20:39;9.30;99.90
54158;DHT22;40065;49.894;10.358;2024-02-15T03:25:41;9.30;99.90
54158;DHT22;40065;49.894;10.358;2024-02-15T03:30:43;9.30;99.90
54158;DHT22;40065;49.894;10.358;2024-02-15T03:35:45;9.30;99.90
54158;DHT22;40065;49.894;10.358;2024-02-15T03:40:46;9.30;99.90
54158;DHT22;40065;49.894;10.358;2024-02-15T03:45:49;9.30;99.90
54158;DHT22;40065;49.894;10.358;2024-02-15T03:50:50;9.30;99.90
54158;DHT22;40065;49.894;10.358;2024-02-15T03:55:52;9.30;99.90
54158;DHT22;40065;49.894;10.358;2024-02-15T04:00:55;9.20;99.90
54158;DHT22;40065;49.894;10.358;2024-02-15T04:05:58;9.10;99.90
54158;DHT22;40065;49.894;10.358;2024-02-15T04:11:02;9.00;99.90
54158;DHT22;40065;49.894;10.358;2024-02-15T04:16:04;8.90;99.90
54158;DHT22;40065;49.894;10.358;2024-02-15T04:21:06;8.70;99.90
54158;DHT22;40065;49.894;10.358;2024-02-15T04:26:09;8.60;99.90
54158;DHT22;40065;49.894;10.358;2024-02-15T04:31:11;8.70;99.90
54158;DHT22;40065;49.894;10.358;2024-02-15T04:36:14;8.70;99.90
54158;DHT22;40065;49.894;10.358;2024-02-15T04:41:19;8.80;99.90
54158;DHT22;40065;49.894;10.358;2024-02-15T04:46:24;8.70;99.90
54158;DHT22;40065;49.894;10.358;2024-02-15T04:51:26;8.60;99.90
54158;DHT22;40065;49.894;10.358;2024-02-15T04:56:29;8.80;99.90
54158;DHT22;40065;49.894;10.358;2024-02-15T05:01:33;9.10;99.90
54158;DHT22;40065;49.894;10.358;2024-02-15T05:06:35;9.20;99.90
54158;DHT22;40065;49.894;10.358;2024-02-15T05:11:38;9.20;99.90
54158;DHT22;40065;49.894;10.358;2024-02-15T05:16:43;9.20;99.90
54158;DHT22;40065;49.894;10.358;2024-02-15T05:21:46;9.10;99.90
54158;DHT22;40065;49.894;10.358;2024-02-15T05:26:48;9.00;99.90
54158;DHT22;40065;49.894;10.358;2024-02-15T05:31:52;9.20;99.90
54158;DHT22;40065;49.894;10.358;2024-02-15T05:36:56;9.20;99.90
54158;DHT22;40065;49.894;10.358;2024-02-15T05:41:57;9.20;99.90
54158;DHT22;40065;49.894;10.358;2024-02-15T05:47:03;9.40;99.90
54158;DHT22;40065;49.894;10.358;2024-02-15T05:52:05;9.30;99.90
54158;DHT22;40065;49.894;10.358;2024-02-15T05:57:07;9.20;99.90
54158;DHT22;40065;49.894;10.358;2024-02-15T06:02:09;9.00;99.90
54158;DHT22;40065;49.894;10.358;2024-02-15T06:07:11;9.00;99.90
54158;DHT22;40065;49.894;10.358;2024-02-15T06:12:13;9.00;99.90
54158;DHT22;40065;49.894;10.358;2024-02-15T06:17:15;8.90;99.90
54158;DHT22;40065;49.894;10.358;2024-02-15T06:22:16;8.90;99.90
54158;DHT22;40065;49.894;10.358;2024-02-15T06:27:18;8.90;99.90
54158;DHT22;40065;49.894;10.358;2024-02-15T06:32:21;9.00;99.90
54158;DHT22;40065;49.894;10.358;2024-02-15T06:37:41;9.00;99.90
54158;DHT22;40065;49.894;10.358;2024-02-15T06:43:01;8.90;99.90
54158;DHT22;40065;49.894;10.358;2024-02-15T06:48:05;9.00;99.90
54158;DHT22;40065;49.894;10.358;2024-02-15T06:53:09;9.00;99.90
54158;DHT22;40065;49.894;10.358;2024-02-15T06:58:11;9.20;99.90
54158;DHT22;40065;49.894;10.358;2024-02-15T07:03:16;9.30;99.90
54158;DHT22;40065;49.894;10.358;2024-02-15T07:08:18;9.30;99.90
54158;DHT22;40065;49.894;10.358;2024-02-15T07:13:20;9.30;99.90
54158;DHT22;40065;49.894;10.358;2024-02-15T07:18:22;9.50;99.90
54158;DHT22;40065;49.894;10.358;2024-02-15T07:23:30;9.70;99.90
54158;DHT22;40065;49.894;10.358;2024-02-15T07:28:31;9.80;99.90
54158;DHT22;40065;49.894;10.358;2024-02-15T07:33:33;9.90;99.90
54158;DHT22;40065;49.894;10.358;2024-02-15T07:38:37;10.00;99.90
54158;DHT22;40065;49.894;10.358;2024-02-15T07:43:39;10.00;99.90
54158;DHT22;40065;49.894;10.358;2024-02-15T07:48:45;10.00;99.90
54158;DHT22;40065;49.894;10.358;2024-02-15T07:53:49;10.00;99.90
54158;DHT22;40065;49.894;10.358;2024-02-15T07:58:51;10.00;99.90
54158;DHT22;40065;49.894;10.358;2024-02-15T08:03:55;10.00;99.90
54158;DHT22;40065;49.894;10.358;2024-02-15T08:08:57;10.10;99.90
54158;DHT22;40065;49.894;10.358;2024-02-15T08:13:59;10.20;99.90
54158;DHT22;40065;49.894;10.358;2024-02-15T08:19:01;10.40;99.90
54158;DHT22;40065;49.894;10.358;2024-02-15T08:24:05;10.50;99.90
54158;DHT22;40065;49.894;10.358;2024-02-15T08:29:11;10.60;99.90
54158;DHT22;40065;49.894;10.358;2024-02-15T08:34:13;10.80;99.90
54158;DHT22;40065;49.894;10.358;2024-02-15T08:39:16;11.00;99.90
54158;DHT22;40065;49.894;10.358;2024-02-15T08:44:19;11.20;99.90
54158;DHT22;40065;49.894;10.358;2024-02-15T08:49:23;11.30;99.90
54158;DHT22;40065;49.894;10.358;2024-02-15T08:54:25;11.20;99.90
54158;DHT22;40065;49.894;10.358;2024-02-15T08:59:28;11.30;99.90
54158;DHT22;40065;49.894;10.358;2024-02-15T09:04:30;11.30;99.90
54158;DHT22;40065;49.894;10.358;2024-02-15T09:09:32;11.30;99.90
54158;DHT22;40065;49.894;10.358;2024-02-15T09:14:35;11.40;99.90
54158;DHT22;40065;49.894;10.358;2024-02-15T09:19:40;11.40;99.90
54158;DHT22;40065;49.894;10.358;2024-02-15T09:24:43;11.50;99.90
54158;DHT22;40065;49.894;10.358;2024-02-15T09:29:45;11.60;99.90
54158;DHT22;40065;49.894;10.358;2024-02-15T09:34:47;11.80;99.90
54158;DHT22;40065;49.894;10.358;2024-02-15T09:39:49;11.90;99.90
54158;DHT22;40065;49.894;10.358;2024-02-15T09:44:51;12.20;99.90
54158;DHT22;40065;49.894;10.358;2024-02-15T09:49:53;12.30;99.90
54158;DHT22;40065;49.894;10.358;2024-02-15T09:54:55;12.50;99.90
54158;DHT22;40065;49.894;10.358;2024-02-15T09:59:57;12.60;99.90
54158;DHT22;40065;49.894;10.358;2024-02-15T10:04:59;12.80;99.90
54158;DHT22;40065;49.894;10.358;2024-02-15T10:15:34;13.00;99.90
54158;DHT22;40065;49.894;10.358;2024-02-15T10:20:38;13.10;99.90
54158;DHT22;40065;49.894;10.358;2024-02-15T10:25:41;12.60;99.90
54158;DHT22;40065;49.894;10.358;2024-02-15T10:30:44;12.70;99.90
54158;DHT22;40065;49.894;10.358;2024-02-15T10:35:47;12.90;99.90
54158;DHT22;40065;49.894;10.358;2024-02-15T10:40:49;13.30;99.90
54158;DHT22;40065;49.894;10.358;2024-02-15T10:45:52;13.10;99.90
54158;DHT22;40065;49.894;10.358;2024-02-15T10:50:56;13.30;99.90
54158;DHT22;40065;49.894;10.358;2024-02-15T10:56:17;13.50;99.90
54158;DHT22;40065;49.894;10.358;2024-02-15T11:01:22;13.60;99.90
54158;DHT22;40065;49.894;10.358;2024-02-15T11:06:28;13.60;99.90
54158;DHT22;40065;49.894;10.358;2024-02-15T11:11:32;13.60;99.90
54158;DHT22;40065;49.894;10.358;2024-02-15T11:16:42;13.50;99.90
54158;DHT22;40065;49.894;10.358;2024-02-15T11:21:54;13.90;99.90
54158;DHT22;40065;49.894;10.358;2024-02-15T11:27:03;13.90;99.90
54158;DHT22;40065;49.894;10.358;2024-02-15T11:32:37;14.00;99.90
54158;DHT22;40065;49.894;10.358;2024-02-15T11:42:59;14.50;99.90
54158;DHT22;40065;49.894;10.358;2024-02-15T11:48:03;15.20;99.90
54158;DHT22;40065;49.894;10.358;2024-02-15T11:53:06;15.60;99.90
54158;DHT22;40065;49.894;10.358;2024-02-15T11:58:13;15.50;99.90
54158;DHT22;40065;49.894;10.358;2024-02-15T12:03:30;15.50;99.90
54158;DHT22;40065;49.894;10.358;2024-02-15T12:09:09;14.50;99.90
54158;DHT22;40065;49.894;10.358;2024-02-15T12:14:29;15.40;99.90
54158;DHT22;40065;49.894;10.358;2024-02-15T12:19:52;15.60;99.90
54158;DHT22;40065;49.894;10.358;2024-02-15T12:25:01;15.90;99.90
54158;DHT22;40065;49.894;10.358;2024-02-15T12:30:16;16.90;99.90
54158;DHT22;40065;49.894;10.358;2024-02-15T12:35:22;17.20;99.90
54158;DHT22;40065;49.894;10.358;2024-02-15T12:40:33;17.50;99.90
54158;DHT22;40065;49.894;10.358;2024-02-15T12:45:40;17.00;99.90
54158;DHT22;40065;49.894;10.358;2024-02-15T12:50:42;17.10;99.90
54158;DHT22;40065;49.894;10.358;2024-02-15T12:55:52;17.80;99.90
54158;DHT22;40065;49.894;10.358;2024-02-15T13:00:56;18.10;99.90
54158;DHT22;40065;49.894;10.358;2024-02-15T13:06:00;17.80;99.90
54158;DHT22;40065;49.894;10.358;2024-02-15T13:11:03;17.40;99.90
54158;DHT22;40065;49.894;10.358;2024-02-15T13:16:05;16.60;99.90
54158;DHT22;40065;49.894;10.358;2024-02-15T13:21:08;16.80;99.90
54158;DHT22;40065;49.894;10.358;2024-02-15T13:26:12;16.40;99.90
54158;DHT22;40065;49.894;10.358;2024-02-15T13:31:14;16.40;99.90
54158;DHT22;40065;49.894;10.358;2024-02-15T13:36:17;16.80;99.90
54158;DHT22;40065;49.894;10.358;2024-02-15T13:41:19;17.00;99.90
54158;DHT22;40065;49.894;10.358;2024-02-15T13:46:21;16.60;99.90
54158;DHT22;40065;49.894;10.358;2024-02-15T13:51:23;16.70;99.90
54158;DHT22;40065;49.894;10.358;2024-02-15T13:56:25;16.60;99.90
54158;DHT22;40065;49.894;10.358;2024-02-15T14:01:28;16.50;99.90
54158;DHT22;40065;49.894;10.358;2024-02-15T14:06:30;16.20;99.90
54158;DHT22;40065;49.894;10.358;2024-02-15T14:11:32;16.00;99.90
54158;DHT22;40065;49.894;10.358;2024-02-15T14:16:34;15.90;99.90
54158;DHT22;40065;49.894;10.358;2024-02-15T14:21:36;15.50;99.90
54158;DHT22;40065;49.894;10.358;2024-02-15T14:26:40;15.80;99.90
54158;DHT22;40065;49.894;10.358;2024-02-15T14:31:43;15.40;99.90
54158;DHT22;40065;49.894;10.358;2024-02-15T14:37:04;15.50;99.90
54158;DHT22;40065;49.894;10.358;2024-02-15T14:42:08;16.10;99.90
54158;DHT22;40065;49.894;10.358;2024-02-15T14:47:12;15.60;99.90
54158;DHT22;40065;49.894;10.358;2024-02-15T14:52:14;15.30;99.90
54158;DHT22;40065;49.894;10.358;2024-02-15T14:57:16;14.90;99.90
54158;DHT22;40065;49.894;10.358;2024-02-15T15:02:22;14.50;99.90
54158;DHT22;40065;49.894;10.358;2024-02-15T15:07:24;14.30;99.90
54158;DHT22;40065;49.894;10.358;2024-02-15T15:12:44;14.30;99.90
54158;DHT22;40065;49.894;10.358;2024-02-15T15:17:47;14.10;99.90
54158;DHT22;40065;49.894;10.358;2024-02-15T15:22:49;13.80;99.90
54158;DHT22;40065;49.894;10.358;2024-02-15T15:27:51;13.70;99.90
54158;DHT22;40065;49.894;10.358;2024-02-15T15:32:53;13.60;99.90
54158;DHT22;40065;49.894;10.358;2024-02-15T15:37:57;13.60;99.90
54158;DHT22;40065;49.894;10.358;2024-02-15T15:42:59;13.40;99.90
54158;DHT22;40065;49.894;10.358;2024-02-15T15:48:02;13.30;99.90
54158;DHT22;40065;49.894;10.358;2024-02-15T15:53:09;12.90;99.90
54158;DHT22;40065;49.894;10.358;2024-02-15T15:58:12;12.80;99.90
54158;DHT22;40065;49.894;10.358;2024-02-15T16:03:14;12.60;99.90
54158;DHT22;40065;49.894;10.358;2024-02-15T16:08:17;12.40;99.90
54158;DHT22;40065;49.894;10.358;2024-02-15T16:13:19;12.20;99.90
54158;DHT22;40065;49.894;10.358;2024-02-15T16:18:21;12.10;99.90
54158;DHT22;40065;49.894;10.358;2024-02-15T16:23:25;11.90;99.90
54158;DHT22;40065;49.894;10.358;2024-02-15T16:28:27;11.80;99.90
54158;DHT22;40065;49.894;10.358;2024-02-15T16:33:28;11.60;99.90
54158;DHT22;40065;49.894;10.358;2024-02-15T16:38:30;11.50;99.90
54158;DHT22;40065;49.894;10.358;2024-02-15T16:43:32;11.30;99.90
54158;DHT22;40065;49.894;10.358;2024-02-15T16:48:34;11.20;99.90
54158;DHT22;40065;49.894;10.358;2024-02-15T16:53:36;11.00;99.90
54158;DHT22;40065;49.894;10.358;2024-02-15T16:58:40;10.90;99.90
54158;DHT22;40065;49.894;10.358;2024-02-15T17:03:42;10.80;99.90
54158;DHT22;40065;49.894;10.358;2024-02-15T17:08:44;10.70;99.90
54158;DHT22;40065;49.894;10.358;2024-02-15T17:13:48;10.70;99.90
54158;DHT22;40065;49.894;10.358;2024-02-15T17:18:50;10.60;99.90
54158;DHT22;40065;49.894;10.358;2024-02-15T17:23:52;10.60;99.90
54158;DHT22;40065;49.894;10.358;2024-02-15T17:28:54;10.50;99.90
54158;DHT22;40065;49.894;10.358;2024-02-15T17:33:58;10.50;99.90
54158;DHT22;40065;49.894;10.358;2024-02-15T17:39:00;10.60;99.90
54158;DHT22;40065;49.894;10.358;2024-02-15T17:44:03;10.60;99.90
54158;DHT22;40065;49.894;10.358;2024-02-15T17:49:05;10.60;99.90
54158;DHT22;40065;49.894;10.358;2024-02-15T17:54:07;10.50;99.90
54158;DHT22;40065;49.894;10.358;2024-02-15T17:59:09;10.60;99.90
54158;DHT22;40065;49.894;10.358;2024-02-15T18:04:12;10.70;99.90
54158;DHT22;40065;49.894;10.358;2024-02-15T18:09:14;10.60;99.90
54158;DHT22;40065;49.894;10.358;2024-02-15T18:14:16;10.70;99.90
54158;DHT22;40065;49.894;10.358;2024-02-15T18:19:18;10.60;99.90
54158;DHT22;40065;49.894;10.358;2024-02-15T18:24:21;10.40;99.90
54158;DHT22;40065;49.894;10.358;2024-02-15T18:29:23;10.30;99.90
54158;DHT22;40065;49.894;10.358;2024-02-15T18:34:25;10.10;99.90
54158;DHT22;40065;49.894;10.358;2024-02-15T18:39:27;10.10;99.90
54158;DHT22;40065;49.894;10.358;2024-02-15T18:44:30;9.80;99.90
54158;DHT22;40065;49.894;10.358;2024-02-15T18:49:32;9.70;99.90
54158;DHT22;40065;49.894;10.358;2024-02-15T18:54:41;9.60;99.90
54158;DHT22;40065;49.894;10.358;2024-02-15T18:59:44;9.50;99.90
54158;DHT22;40065;49.894;10.358;2024-02-15T19:04:46;9.30;99.90
54158;DHT22;40065;49.894;10.358;2024-02-15T19:09:48;9.20;99.90
54158;DHT22;40065;49.894;10.358;2024-02-15T19:14:51;8.90;99.90
54158;DHT22;40065;49.894;10.358;2024-02-15T19:19:53;8.90;99.90
54158;DHT22;40065;49.894;10.358;2024-02-15T19:24:55;9.00;99.90
54158;DHT22;40065;49.894;10.358;2024-02-15T19:29:57;9.00;99.90
54158;DHT22;40065;49.894;10.358;2024-02-15T19:34:59;9.10;99.90
54158;DHT22;40065;49.894;10.358;2024-02-15T19:40:03;9.00;99.90
54158;DHT22;40065;49.894;10.358;2024-02-15T19:45:09;9.00;99.90
54158;DHT22;40065;49.894;10.358;2024-02-15T19:50:11;9.10;99.90
54158;DHT22;40065;49.894;10.358;2024-02-15T19:55:17;9.10;99.90
54158;DHT22;40065;49.894;10.358;2024-02-15T20:00:19;9.20;99.90
54158;DHT22;40065;49.894;10.358;2024-02-15T20:05:22;9.20;99.90
54158;DHT22;40065;49.894;10.358;2024-02-15T20:10:25;8.90;99.90
54158;DHT22;40065;49.894;10.358;2024-02-15T20:15:27;8.80;99.90
54158;DHT22;40065;49.894;10.358;2024-02-15T20:20:32;8.80;99.90
54158;DHT22;40065;49.894;10.358;2024-02-15T20:25:34;8.80;99.90
54158;DHT22;40065;49.894;10.358;2024-02-15T20:30:35;9.00;99.90
54158;DHT22;40065;49.894;10.358;2024-02-15T20:35:38;9.30;99.90
54158;DHT22;40065;49.894;10.358;2024-02-15T20:40:40;9.80;99.90
54158;DHT22;40065;49.894;10.358;2024-02-15T20:45:42;10.00;99.90
54158;DHT22;40065;49.894;10.358;2024-02-15T20:50:45;10.10;99.90
54158;DHT22;40065;49.894;10.358;2024-02-15T20:55:47;10.30;99.90
54158;DHT22;40065;49.894;10.358;2024-02-15T21:00:49;10.50;99.90
54158;DHT22;40065;49.894;10.358;2024-02-15T21:05:50;10.70;99.90
54158;DHT22;40065;49.894;10.358;2024-02-15T21:10:53;10.90;99.90
54158;DHT22;40065;49.894;10.358;2024-02-15T21:16:01;10.80;99.90
54158;DHT22;40065;49.894;10.358;2024-02-15T21:21:08;10.90;99.90
54158;DHT22;40065;49.894;10.358;2024-02-15T21:26:11;11.20;99.90
54158;DHT22;40065;49.894;10.358;2024-02-15T21:31:13;11.20;99.90
54158;DHT22;40065;49.894;10.358;2024-02-15T21:36:18;11.10;99.90
54158;DHT22;40065;49.894;10.358;2024-02-15T21:41:20;11.00;99.90
54158;DHT22;40065;49.894;10.358;2024-02-15T21:46:22;10.80;99.90
54158;DHT22;40065;49.894;10.358;2024-02-15T21:51:24;10.60;99.90
54158;DHT22;40065;49.894;10.358;2024-02-15T21:56:26;10.40;99.90
54158;DHT22;40065;49.894;10.358;2024-02-15T22:01:28;10.20;99.90
54158;DHT22;40065;49.894;10.358;2024-02-15T22:06:32;10.20;99.90
54158;DHT22;40065;49.894;10.358;2024-02-15T22:11:34;10.00;99.90
54158;DHT22;40065;49.894;10.358;2024-02-15T22:16:37;9.90;99.90
54158;DHT22;40065;49.894;10.358;2024-02-15T22:21:39;9.90;99.90
54158;DHT22;40065;49.894;10.358;2024-02-15T22:26:41;9.80;99.90
54158;DHT22;40065;49.894;10.358;2024-02-15T22:31:43;9.80;99.90
54158;DHT22;40065;49.894;10.358;2024-02-15T22:36:45;9.80;99.90
54158;DHT22;40065;49.894;10.358;2024-02-15T22:41:47;9.70;99.90
54158;DHT22;40065;49.894;10.358;2024-02-15T22:46:51;9.80;99.90
54158;DHT22;40065;49.894;10.358;2024-02-15T22:51:55;10.00;99.90
54158;DHT22;40065;49.894;10.358;2024-02-15T22:56:57;10.10;99.90
54158;DHT22;40065;49.894;10.358;2024-02-15T23:01:59;10.20;99.90
54158;DHT22;40065;49.894;10.358;2024-02-15T23:07:02;10.30;99.90
54158;DHT22;40065;49.894;10.358;2024-02-15T23:12:05;10.30;99.90
54158;DHT22;40065;49.894;10.358;2024-02-15T23:17:07;10.20;99.90
54158;DHT22;40065;49.894;10.358;2024-02-15T23:22:09;10.20;99.90
54158;DHT22;40065;49.894;10.358;2024-02-15T23:27:12;10.30;99.90
54158;DHT22;40065;49.894;10.358;2024-02-15T23:32:14;10.30;99.90
54158;DHT22;40065;49.894;10.358;2024-02-15T23:37:16;10.10;99.90
54158;DHT22;40065;49.894;10.358;2024-02-15T23:42:36;10.00;99.90
54158;DHT22;40065;49.894;10.358;2024-02-15T23:47:38;10.00;99.90
54158;DHT22;40065;49.894;10.358;2024-02-15T23:52:40;10.10;99.90
54158;DHT22;40065;49.894;10.358;2024-02-15T23:57:43;9.90;99.90
